createdAt,value
2018-05-12T00:00:08.107Z,42.13
2018-05-12T00:02:37.839Z,43.80
2018-05-12T00:05:07.215Z,45.38
2018-05-12T00:07:36.951Z,43.63
2018-05-12T00:10:06.659Z,41.63
2018-05-12T00:12:36.554Z,43.35
2018-05-12T00:15:06.357Z,47.30
2018-05-12T00:17:36.174Z,39.65
2018-05-12T00:20:05.277Z,37.42
2018-05-12T00:22:34.960Z,37.10
2018-05-12T00:25:04.684Z,42.45
2018-05-12T00:27:34.384Z,38.30
2018-05-12T00:30:03.434Z,47.35
2018-05-12T00:32:33.888Z,42.15
2018-05-12T00:35:03.259Z,37.90
2018-05-12T00:37:33.723Z,43.53
2018-05-12T00:40:03.431Z,38.45
2018-05-12T00:42:33.114Z,41.78
2018-05-12T00:45:03.255Z,44.97
2018-05-12T00:47:32.952Z,43.83
2018-05-12T00:50:02.713Z,44.03
2018-05-12T00:52:32.401Z,46.53
2018-05-12T00:55:02.138Z,43.22
2018-05-12T00:57:32.598Z,50.22
2018-05-12T01:00:02.298Z,38.95
2018-05-12T01:02:32.760Z,51.45
2018-05-12T01:05:02.538Z,48.65
2018-05-12T01:07:32.666Z,48.50
2018-05-12T01:10:03.145Z,47.72
2018-05-12T01:12:32.810Z,51.58
2018-05-12T01:15:03.284Z,48.05
2018-05-12T01:17:32.971Z,56.47
2018-05-12T01:20:02.671Z,52.10
2018-05-12T01:22:32.378Z,55.42
2018-05-12T01:25:02.083Z,55.08
2018-05-12T01:27:32.551Z,49.55
2018-05-12T01:30:02.243Z,50.67
2018-05-12T01:32:31.931Z,50.28
2018-05-12T01:35:02.406Z,57.05
2018-05-12T01:37:32.112Z,52.58
2018-05-12T01:40:01.821Z,47.22
2018-05-12T01:42:31.551Z,49.17
2018-05-12T01:45:01.266Z,49.53
2018-05-12T01:47:30.941Z,52.78
2018-05-12T01:50:00.643Z,52.50
2018-05-12T01:52:30.392Z,50.22
2018-05-12T01:55:00.076Z,50.83
2018-05-12T01:57:30.547Z,46.40
2018-05-12T02:00:01.021Z,49.65
2018-05-12T02:02:31.147Z,43.33
2018-05-12T02:05:00.855Z,46.97
2018-05-12T02:07:30.567Z,41.80
2018-05-12T02:10:00.275Z,48.92
2018-05-12T02:12:29.955Z,51.95
2018-05-12T02:14:59.678Z,47.92
2018-05-12T02:17:29.346Z,53.72
2018-05-12T02:19:59.833Z,50.28
2018-05-12T02:22:29.519Z,49.47
2018-05-12T02:24:59.227Z,49.60
2018-05-12T02:27:28.923Z,45.70
2018-05-12T02:29:58.631Z,44.60
2018-05-12T02:32:28.323Z,44.78
2018-05-12T02:34:58.795Z,43.50
2018-05-12T02:37:28.485Z,44.78
2018-05-12T02:39:58.191Z,44.70
2018-05-12T02:42:27.890Z,43.50
2018-05-12T02:44:57.599Z,43.53
2018-05-12T02:47:27.289Z,44.67
2018-05-12T02:49:57.775Z,45.12
2018-05-12T02:52:27.467Z,45.90
2018-05-12T02:54:57.175Z,44.58
2018-05-12T02:57:26.870Z,50.35
2018-05-12T02:59:56.584Z,49.63
2018-05-12T03:02:26.276Z,48.65
2018-05-12T03:04:56.752Z,50.70
2018-05-12T03:07:26.448Z,43.03
2018-05-12T03:09:56.155Z,47.08
2018-05-12T03:12:25.855Z,42.50
2018-05-12T03:14:55.566Z,48.50
2018-05-12T03:17:24.915Z,35.90
2018-05-12T03:19:54.623Z,44.03
2018-05-12T03:22:24.316Z,41.42
2018-05-12T03:24:54.027Z,34.00
2018-05-12T03:27:23.387Z,43.17
2018-05-12T03:29:53.173Z,35.28
2018-05-12T03:32:23.724Z,34.70
2018-05-12T03:34:53.440Z,32.33
2018-05-12T03:37:23.127Z,30.10
2018-05-12T03:39:53.617Z,27.30
2018-05-12T03:42:23.307Z,33.22
2018-05-12T03:44:52.773Z,35.85
2018-05-12T03:47:22.471Z,34.35
2018-05-12T03:49:52.923Z,34.65
2018-05-12T03:52:22.635Z,32.85
2018-05-12T03:54:53.075Z,33.33
2018-05-12T03:57:22.775Z,33.38
2018-05-12T03:59:52.484Z,33.65
2018-05-12T04:02:23.138Z,31.75
2018-05-12T04:05:04.008Z,31.73
2018-05-12T04:07:45.060Z,32.67
2018-05-12T04:10:40.714Z,37.40
2018-05-12T04:13:09.738Z,38.90
2018-05-12T04:15:40.214Z,42.10
2018-05-12T04:18:09.893Z,35.85
2018-05-12T04:20:40.370Z,36.53
2018-05-12T04:23:10.079Z,35.35
2018-05-12T04:25:39.836Z,36.92
2018-05-12T04:28:10.295Z,38.90
2018-05-12T04:30:40.002Z,42.45
2018-05-12T04:33:09.708Z,40.70
2018-05-12T04:35:39.050Z,31.92
2018-05-12T04:38:08.727Z,34.53
2018-05-12T04:40:38.434Z,35.70
2018-05-12T04:43:08.151Z,37.30
2018-05-12T04:45:37.855Z,40.55
2018-05-12T04:48:07.555Z,37.22
2018-05-12T04:50:37.235Z,36.47
2018-05-12T04:53:07.701Z,38.05
2018-05-12T04:55:37.391Z,35.83
2018-05-12T04:58:07.108Z,35.95
2018-05-12T05:00:36.455Z,33.65
2018-05-12T05:03:06.159Z,39.88
2018-05-12T05:05:35.842Z,38.80
2018-05-12T05:08:05.538Z,35.17
2018-05-12T05:10:35.216Z,34.65
2018-05-12T05:13:05.806Z,37.63
2018-05-12T05:15:36.306Z,30.77
2018-05-12T05:18:06.001Z,35.33
2018-05-12T05:20:35.687Z,33.22
2018-05-12T05:23:05.064Z,35.00
2018-05-12T05:25:34.743Z,31.17
2018-05-12T05:28:04.452Z,32.55
2018-05-12T05:30:34.147Z,28.85
2018-05-12T05:33:03.865Z,28.42
2018-05-12T05:35:33.559Z,26.50
2018-05-12T05:38:04.619Z,31.98
2018-05-12T05:40:34.302Z,32.38
2018-05-12T05:43:03.679Z,25.20
2018-05-12T05:45:33.377Z,27.98
2018-05-12T05:48:03.104Z,28.40
2018-05-12T05:50:32.787Z,25.58
2018-05-12T05:53:02.499Z,29.60
2018-05-12T05:55:32.188Z,27.87
2018-05-12T05:58:01.897Z,25.23
2018-05-12T06:00:31.592Z,25.35
2018-05-12T06:03:01.315Z,27.33
2018-05-12T06:05:30.994Z,27.25
2018-05-12T06:08:01.503Z,26.52
2018-05-12T06:10:31.963Z,26.85
2018-05-12T06:13:01.693Z,27.75
2018-05-12T06:15:31.413Z,26.85
2018-05-12T06:18:02.020Z,27.92
2018-05-12T06:20:31.816Z,26.62
2018-05-12T06:23:02.479Z,27.62
2018-05-12T06:25:32.175Z,28.08
2018-05-12T06:28:01.887Z,27.73
2018-05-12T06:30:31.577Z,27.55
2018-05-12T06:33:01.330Z,25.27
2018-05-12T06:35:31.019Z,27.92
2018-05-12T06:38:00.724Z,30.50
2018-05-12T06:40:30.412Z,28.30
2018-05-12T06:43:00.126Z,27.25
2018-05-12T06:45:29.819Z,26.35
2018-05-12T06:47:59.655Z,27.92
2018-05-12T06:50:29.354Z,27.60
2018-05-12T06:53:00.019Z,28.62
2018-05-12T06:55:29.700Z,29.63
2018-05-12T06:57:59.419Z,28.95
2018-05-12T07:00:29.094Z,28.73
2018-05-12T07:02:59.583Z,30.17
2018-05-12T07:05:29.270Z,30.27
2018-05-12T07:07:58.991Z,29.48
2018-05-12T07:10:28.679Z,29.27
2018-05-12T07:12:58.576Z,28.12
2018-05-12T07:15:28.295Z,29.37
2018-05-12T07:17:57.983Z,33.13
2018-05-12T07:20:28.448Z,29.75
2018-05-12T07:22:58.153Z,27.92
2018-05-12T07:25:27.856Z,26.98
2018-05-12T07:27:57.547Z,28.15
2018-05-12T07:30:27.291Z,28.00
2018-05-12T07:32:56.975Z,25.42
2018-05-12T07:35:26.683Z,25.62
2018-05-12T07:37:56.374Z,26.55
2018-05-12T07:40:26.096Z,24.77
2018-05-12T07:42:55.791Z,24.40
2018-05-12T07:45:26.298Z,23.17
2018-05-12T07:47:56.160Z,23.02
2018-05-12T07:50:25.871Z,22.92
2018-05-12T07:52:55.555Z,23.10
2018-05-12T07:55:26.027Z,21.52
2018-05-12T07:57:55.716Z,20.73
2018-05-12T08:00:25.627Z,19.67
2018-05-12T08:02:55.324Z,16.37
2018-05-12T08:05:25.044Z,17.27
2018-05-12T08:07:54.920Z,15.98
2018-05-12T08:10:25.394Z,18.92
2018-05-12T08:12:55.180Z,15.25
2018-05-12T08:15:25.011Z,14.93
2018-05-12T08:17:54.888Z,15.07
2018-05-12T08:20:24.609Z,14.60
2018-05-12T08:22:53.975Z,15.63
2018-05-12T08:25:23.683Z,14.50
2018-05-12T08:27:53.374Z,14.27
2018-05-12T08:30:23.091Z,14.75
2018-05-12T08:32:52.972Z,14.90
2018-05-12T08:35:22.693Z,15.05
2018-05-12T08:37:52.419Z,15.35
2018-05-12T08:40:22.206Z,15.05
2018-05-12T08:42:52.243Z,16.35
2018-05-12T08:45:21.947Z,20.95
2018-05-12T08:47:51.894Z,14.60
2018-05-12T08:50:21.611Z,13.57
2018-05-12T08:52:51.432Z,14.13
2018-05-12T08:55:21.177Z,14.50
2018-05-12T08:57:51.893Z,14.43
2018-05-12T09:00:21.654Z,12.68
2018-05-12T09:02:51.659Z,11.85
2018-05-12T09:05:21.432Z,12.57
2018-05-12T09:07:51.252Z,11.90
2018-05-12T09:10:20.967Z,11.50
2018-05-12T09:12:51.875Z,13.50
2018-05-12T09:15:22.523Z,12.02
2018-05-12T09:17:53.191Z,13.57
2018-05-12T09:20:23.134Z,13.98
2018-05-12T09:22:53.761Z,14.43
2018-05-12T09:25:23.551Z,22.55
2018-05-12T09:27:53.516Z,14.60
2018-05-12T09:30:24.003Z,14.30
2018-05-12T09:32:54.677Z,13.25
2018-05-12T09:35:24.411Z,12.15
2018-05-12T09:37:54.135Z,10.93
2018-05-12T09:40:23.824Z,9.65
2018-05-12T09:42:53.756Z,11.32
2018-05-12T09:45:23.763Z,10.45
2018-05-12T09:47:53.706Z,10.15
2018-05-12T09:50:23.412Z,11.30
2018-05-12T09:52:53.102Z,11.90
2018-05-12T09:55:22.480Z,11.30
2018-05-12T09:57:52.351Z,10.85
2018-05-12T10:00:25.951Z,10.80
2018-05-12T10:02:55.804Z,9.20
2018-05-12T10:05:25.487Z,8.60
2018-05-12T10:07:55.151Z,8.48
2018-05-12T10:10:24.838Z,7.82
2018-05-12T10:12:54.994Z,8.13
2018-05-12T10:15:24.895Z,9.00
2018-05-12T10:17:54.882Z,8.07
2018-05-12T10:20:25.331Z,9.00
2018-05-12T10:22:55.200Z,8.60
2018-05-12T10:25:25.101Z,7.85
2018-05-12T10:27:54.763Z,7.37
2018-05-12T10:30:25.214Z,8.15
2018-05-12T10:32:54.882Z,7.43
2018-05-12T10:35:25.334Z,6.72
2018-05-12T10:37:55.955Z,8.43
2018-05-12T10:40:25.646Z,8.50
2018-05-12T10:42:55.300Z,8.68
2018-05-12T10:45:25.016Z,9.32
2018-05-12T10:47:54.856Z,8.88
2018-05-12T10:50:24.548Z,8.43
2018-05-12T10:52:54.211Z,7.43
2018-05-12T10:55:24.660Z,8.13
2018-05-12T10:57:54.340Z,7.78
2018-05-12T11:00:24.775Z,8.32
2018-05-12T11:02:54.464Z,7.55
2018-05-12T11:05:24.128Z,7.15
2018-05-12T11:07:53.812Z,7.22
2018-05-12T11:10:23.479Z,7.72
2018-05-12T11:12:53.170Z,8.75
2018-05-12T11:15:22.843Z,8.35
2018-05-12T11:17:53.239Z,7.87
2018-05-12T11:20:23.671Z,7.97
2018-05-12T11:22:54.123Z,7.53
2018-05-12T11:25:23.804Z,7.80
2018-05-12T11:27:54.254Z,7.87
2018-05-12T11:30:23.921Z,8.45
2018-05-12T11:32:53.797Z,7.00
2018-05-12T11:35:23.455Z,8.00
2018-05-12T11:37:53.322Z,8.02
2018-05-12T11:40:22.987Z,7.65
2018-05-12T11:42:53.431Z,7.12
2018-05-12T11:45:23.091Z,8.15
2018-05-12T11:47:52.958Z,8.27
2018-05-12T11:50:22.647Z,8.32
2018-05-12T11:52:53.739Z,9.20
2018-05-12T11:55:23.423Z,9.85
2018-05-12T11:57:53.152Z,8.55
2018-05-12T12:00:22.578Z,7.95
2018-05-12T12:02:52.447Z,7.40
2018-05-12T12:05:22.118Z,6.72
2018-05-12T12:07:52.571Z,6.40
2018-05-12T12:10:22.230Z,6.50
2018-05-12T12:12:52.099Z,7.45
2018-05-12T12:15:21.767Z,6.05
2018-05-12T12:17:51.476Z,6.07
2018-05-12T12:20:21.799Z,6.00
2018-05-12T12:22:51.338Z,6.30
2018-05-12T12:25:21.759Z,5.95
2018-05-12T12:27:52.203Z,5.82
2018-05-12T12:30:21.866Z,6.25
2018-05-12T12:32:51.747Z,6.97
2018-05-12T12:35:21.415Z,6.28
2018-05-12T12:37:51.292Z,5.93
2018-05-12T12:40:20.959Z,6.53
2018-05-12T12:42:50.643Z,7.00
2018-05-12T12:45:21.081Z,6.55
2018-05-12T12:47:51.725Z,8.25
2018-05-12T12:50:21.382Z,6.30
2018-05-12T12:52:51.058Z,6.25
2018-05-12T12:55:20.729Z,6.22
2018-05-12T12:57:50.595Z,6.03
2018-05-12T13:00:20.255Z,5.60
2018-05-12T13:02:50.886Z,6.05
2018-05-12T13:05:20.556Z,7.20
2018-05-12T13:07:50.423Z,7.03
2018-05-12T13:10:20.082Z,6.87
2018-05-12T13:12:49.763Z,6.53
2018-05-12T13:15:19.425Z,6.40
2018-05-12T13:17:49.867Z,5.80
2018-05-12T13:20:19.539Z,5.60
2018-05-12T13:22:49.386Z,5.15
2018-05-12T13:25:19.390Z,4.80
2018-05-12T13:27:48.759Z,5.12
2018-05-12T13:30:18.425Z,5.25
2018-05-12T13:32:48.479Z,5.40
2018-05-12T13:35:18.154Z,5.62
2018-05-12T13:37:48.979Z,5.00
2018-05-12T13:40:18.740Z,5.20
2018-05-12T13:42:48.733Z,5.47
2018-05-12T13:45:18.405Z,4.68
2018-05-12T13:47:49.054Z,4.50
2018-05-12T13:50:18.738Z,4.43
2018-05-12T13:52:49.401Z,3.97
2018-05-12T13:55:19.047Z,5.20
2018-05-12T13:57:48.919Z,5.20
2018-05-12T14:00:18.595Z,4.50
2018-05-12T14:02:48.468Z,4.93
2018-05-12T14:05:18.131Z,5.50
2018-05-12T14:07:48.787Z,4.10
2018-05-12T14:10:18.470Z,3.83
2018-05-12T14:12:48.175Z,5.45
2018-05-12T14:15:17.851Z,4.32
2018-05-12T14:17:47.726Z,4.12
2018-05-12T14:20:17.407Z,4.15
2018-05-12T14:22:48.067Z,4.12
2018-05-12T14:25:17.747Z,3.65
2018-05-12T14:27:48.395Z,4.20
2018-05-12T14:30:18.067Z,4.60
2018-05-12T14:32:48.008Z,4.45
2018-05-12T14:35:17.735Z,4.35
2018-05-12T14:37:47.401Z,6.37
2018-05-12T14:40:17.074Z,5.32
2018-05-12T14:42:48.340Z,4.32
2018-05-12T14:45:18.579Z,4.03
2018-05-12T14:47:48.174Z,3.60
2018-05-12T14:50:17.955Z,4.30
2018-05-12T14:52:47.914Z,4.82
2018-05-12T14:55:17.585Z,5.10
2018-05-12T14:57:47.448Z,4.82
2018-05-12T15:00:17.955Z,4.85
2018-05-12T15:02:48.598Z,4.55
2018-05-12T15:05:19.063Z,4.28
2018-05-12T15:07:48.727Z,6.85
2018-05-12T15:10:19.199Z,4.45
2018-05-12T15:12:49.049Z,5.78
2018-05-12T15:15:18.734Z,4.03
2018-05-12T15:17:48.595Z,4.75
2018-05-12T15:20:19.058Z,4.53
2018-05-12T15:22:48.956Z,4.40
2018-05-12T15:25:18.819Z,4.43
2018-05-12T15:27:48.487Z,4.82
2018-05-12T15:30:18.212Z,4.85
2018-05-12T15:32:48.078Z,4.72
2018-05-12T15:35:17.742Z,5.37
2018-05-12T15:37:49.031Z,4.62
2018-05-12T15:40:18.763Z,4.70
2018-05-12T15:42:49.384Z,5.03
2018-05-12T15:45:19.374Z,4.32
2018-05-12T15:47:49.268Z,4.40
2018-05-12T15:50:19.025Z,4.72
2018-05-12T15:52:49.090Z,4.85
2018-05-12T15:55:18.759Z,4.53
2018-05-12T15:57:48.611Z,4.57
2018-05-12T16:00:18.303Z,4.70
2018-05-12T16:02:48.903Z,4.95
2018-05-12T16:05:19.467Z,5.07
2018-05-12T16:07:50.075Z,5.05
2018-05-12T16:10:19.767Z,6.00
2018-05-12T16:12:49.619Z,5.10
2018-05-12T16:15:19.291Z,5.47
2018-05-12T16:17:49.171Z,4.78
2018-05-12T16:20:18.889Z,4.78
2018-05-12T16:22:48.932Z,5.10
2018-05-12T16:25:19.391Z,5.37
2018-05-12T16:27:49.261Z,4.40
2018-05-12T16:30:19.720Z,5.10
2018-05-12T16:32:49.415Z,4.00
2018-05-12T16:35:19.106Z,3.97
2018-05-12T16:37:51.716Z,4.32
2018-05-12T16:40:22.866Z,4.70
2018-05-12T16:42:52.527Z,5.03
2018-05-12T16:45:22.226Z,4.55
2018-05-12T16:47:52.107Z,4.62
2018-05-12T16:50:21.775Z,5.25
2018-05-12T16:52:53.357Z,5.22
2018-05-12T16:55:23.023Z,5.45
2018-05-12T16:57:52.691Z,5.70
2018-05-12T17:00:22.369Z,6.25
2018-05-12T17:02:52.791Z,5.22
2018-05-12T17:05:23.259Z,5.05
2018-05-12T17:07:53.115Z,5.07
2018-05-12T17:10:23.559Z,4.55
2018-05-12T17:12:54.188Z,4.12
2018-05-12T17:15:23.878Z,4.72
2018-05-12T17:17:53.387Z,5.15
2018-05-12T17:20:23.119Z,4.30
2018-05-12T17:22:53.743Z,4.30
2018-05-12T17:25:23.468Z,4.80
2018-05-12T17:27:53.144Z,4.37
2018-05-12T17:30:23.622Z,4.93
2018-05-12T17:32:53.467Z,5.10
2018-05-12T17:35:23.149Z,5.47
2018-05-12T17:37:53.107Z,5.80
2018-05-12T17:40:23.667Z,5.65
2018-05-12T17:42:53.679Z,5.90
2018-05-12T17:45:23.403Z,6.10
2018-05-12T17:47:54.019Z,5.90
2018-05-12T17:50:23.880Z,5.50
2018-05-12T17:52:53.536Z,5.50
2018-05-12T17:55:24.063Z,6.80
2018-05-12T17:57:53.914Z,9.15
2018-05-12T18:00:23.618Z,18.87
2018-05-12T18:02:53.495Z,13.95
2018-05-12T18:05:24.046Z,7.55
2018-05-12T18:07:53.782Z,8.05
2018-05-12T18:10:23.476Z,6.62
2018-05-12T18:12:53.323Z,6.57
2018-05-12T18:15:23.012Z,6.37
2018-05-12T18:17:52.884Z,6.47
2018-05-12T18:20:23.323Z,6.22
2018-05-12T18:22:53.958Z,6.65
2018-05-12T18:25:23.646Z,9.38
2018-05-12T18:27:53.362Z,14.18
2018-05-12T18:30:23.030Z,8.52
2018-05-12T18:32:52.716Z,7.15
2018-05-12T18:35:22.384Z,5.95
2018-05-12T18:37:52.242Z,5.70
2018-05-12T18:40:21.669Z,5.68
2018-05-12T18:42:51.547Z,6.28
2018-05-12T18:45:21.213Z,7.45
2018-05-12T18:47:50.884Z,5.32
2018-05-12T18:50:20.536Z,5.40
2018-05-12T18:52:50.987Z,5.57
2018-05-12T18:55:20.649Z,6.37
2018-05-12T18:57:51.289Z,8.05
2018-05-12T19:00:20.951Z,5.70
2018-05-12T19:02:50.634Z,5.87
2018-05-12T19:05:20.305Z,6.12
2018-05-12T19:07:50.179Z,7.10
2018-05-12T19:10:19.843Z,6.70
2018-05-12T19:12:49.710Z,7.10
2018-05-12T19:15:19.375Z,7.20
2018-05-12T19:17:49.054Z,8.20
2018-05-12T19:20:18.495Z,7.28
2018-05-12T19:22:49.123Z,7.95
2018-05-12T19:25:18.791Z,7.68
2018-05-12T19:27:48.659Z,8.15
2018-05-12T19:30:18.344Z,8.63
2018-05-12T19:32:48.223Z,7.10
2018-05-12T19:35:18.130Z,7.43
2018-05-12T19:37:48.059Z,7.90
2018-05-12T19:40:17.743Z,12.43
2018-05-12T19:42:47.435Z,9.48
2018-05-12T19:45:17.086Z,7.72
2018-05-12T19:47:46.367Z,10.27
2018-05-12T19:50:16.055Z,7.72
2018-05-12T19:52:45.923Z,8.52
2018-05-12T19:55:16.397Z,7.65
2018-05-12T19:57:46.435Z,10.13
2018-05-12T20:00:16.116Z,23.80
2018-05-12T20:02:45.986Z,9.70
2018-05-12T20:05:15.659Z,7.65
2018-05-12T20:07:45.534Z,7.90
2018-05-12T20:10:16.159Z,8.23
2018-05-12T20:12:46.036Z,7.82
2018-05-12T20:15:15.691Z,10.02
2018-05-12T20:17:45.378Z,8.35
2018-05-12T20:20:15.810Z,8.50
2018-05-12T20:22:46.253Z,8.30
2018-05-12T20:25:15.975Z,8.90
2018-05-12T20:27:46.599Z,8.50
2018-05-12T20:30:16.259Z,8.98
2018-05-12T20:32:46.127Z,9.07
2018-05-12T20:35:15.837Z,8.63
2018-05-12T20:37:45.871Z,8.45
2018-05-12T20:40:15.311Z,9.00
2018-05-12T20:42:45.235Z,8.48
2018-05-12T20:45:15.128Z,8.65
2018-05-12T20:47:44.995Z,8.40
2018-05-12T20:50:14.659Z,8.75
2018-05-12T20:52:44.379Z,8.10
2018-05-12T20:55:14.807Z,8.07
2018-05-12T20:57:44.679Z,8.25
2018-05-12T21:00:14.364Z,9.05
2018-05-12T21:02:44.244Z,9.95
2018-05-12T21:05:14.667Z,8.75
2018-05-12T21:07:44.532Z,8.63
2018-05-12T21:10:14.055Z,8.50
2018-05-12T21:12:43.923Z,7.90
2018-05-12T21:15:13.586Z,8.80
2018-05-12T21:17:43.458Z,8.90
2018-05-12T21:20:13.130Z,9.55
2018-05-12T21:22:43.003Z,8.98
2018-05-12T21:25:12.889Z,9.23
2018-05-12T21:27:42.699Z,9.45
2018-05-12T21:30:12.366Z,9.18
2018-05-12T21:32:42.242Z,9.20
2018-05-12T21:35:12.136Z,8.30
2018-05-12T21:37:42.810Z,8.95
2018-05-12T21:40:12.520Z,8.25
2018-05-12T21:42:42.395Z,8.63
2018-05-12T21:45:12.085Z,8.90
2018-05-12T21:47:41.931Z,8.95
2018-05-12T21:50:11.615Z,8.70
2018-05-12T21:52:42.239Z,9.00
2018-05-12T21:55:11.927Z,9.68
2018-05-12T21:57:41.779Z,8.35
2018-05-12T22:00:10.554Z,8.50
2018-05-12T22:02:41.177Z,9.07
2018-05-12T22:05:11.622Z,8.82
2018-05-12T22:07:42.251Z,9.38
2018-05-12T22:10:12.180Z,8.45
2018-05-12T22:12:42.023Z,8.75
2018-05-12T22:15:11.711Z,8.88
2018-05-12T22:17:41.559Z,8.77
2018-05-12T22:20:11.252Z,9.77
2018-05-12T22:22:40.822Z,8.98
2018-05-12T22:25:10.495Z,9.18
2018-05-12T22:27:40.347Z,9.30
2018-05-12T22:30:10.031Z,9.40
2018-05-12T22:32:39.700Z,10.20
2018-05-12T22:35:09.644Z,9.75
2018-05-12T22:37:39.491Z,9.40
2018-05-12T22:40:09.195Z,10.30
2018-05-12T22:42:39.046Z,9.63
2018-05-12T22:45:08.731Z,9.32
2018-05-12T22:47:38.579Z,9.02
2018-05-12T22:50:08.264Z,9.20
2018-05-12T22:52:38.127Z,10.07
2018-05-12T22:55:07.823Z,10.45
2018-05-12T22:57:37.679Z,8.88
2018-05-12T23:00:07.027Z,9.45
2018-05-12T23:02:36.695Z,9.80
2018-05-12T23:05:06.384Z,9.68
2018-05-12T23:07:37.010Z,10.25
2018-05-12T23:10:06.466Z,9.23
2018-05-12T23:12:36.695Z,9.65
2018-05-12T23:15:06.843Z,10.38
2018-05-12T23:17:37.279Z,9.73
2018-05-12T23:20:06.980Z,9.30
2018-05-12T23:22:36.776Z,9.50
2018-05-12T23:25:06.457Z,9.23
2018-05-12T23:27:36.135Z,9.82
2018-05-12T23:30:05.122Z,8.98
2018-05-12T23:32:34.835Z,8.70
2018-05-12T23:35:04.499Z,9.32
2018-05-12T23:37:34.188Z,8.27
2018-05-12T23:40:03.520Z,8.55
2018-05-12T23:42:33.967Z,8.52
2018-05-12T23:45:03.308Z,8.50
2018-05-12T23:47:32.999Z,8.07
2018-05-12T23:50:02.655Z,8.02
2018-05-12T23:52:32.353Z,9.65
2018-05-12T23:55:02.011Z,8.35
2018-05-12T23:57:31.694Z,8.63
